Time;durP1;ratioP1;P1;durP2;ratioP2;P2;SDS_P1;SDS_P2;PMS_P1;PMS_P2;Temp;Humidity;BMP_temperature;BMP_pressure;BME280_temperature;BME280_humidity;BME280_pressure;Samples;Min_cycle;Max_cycle;Signal;HPM_P1;HPM_P2
2023/04/10 00:01:40;;;;;;;26.00;23.48;;;;;;;;;;4998360;28;20422;-85
2023/04/10 00:04:06;;;;;;;25.10;22.65;;;;;;;;;;5003130;28;20455;-86
2023/04/10 00:06:32;;;;;;;25.27;22.93;;;;;;;;;;5011757;28;20424;-86
2023/04/10 00:08:58;;;;;;;26.23;23.63;;;;;;;;;;5001172;28;20450;-85
2023/04/10 00:11:25;;;;;;;26.65;24.05;;;;;;;;;;5002692;28;20440;-86
2023/04/10 00:13:51;;;;;;;26.00;23.50;;;;;;;;;;5015497;28;20497;-86
2023/04/10 00:16:17;;;;;;;26.75;24.05;;;;;;;;;;4995556;28;20430;-86
2023/04/10 00:18:43;;;;;;;26.23;23.63;;;;;;;;;;5015136;28;20436;-86
2023/04/10 00:21:09;;;;;;;25.65;23.25;;;;;;;;;;5026997;28;20408;-85
2023/04/10 00:23:35;;;;;;;26.23;23.63;;;;;;;;;;5015784;28;20410;-85
2023/04/10 00:26:01;;;;;;;26.20;23.70;;;;;;;;;;5012521;28;20417;-86
2023/04/10 00:28:28;;;;;;;26.35;23.77;;;;;;;;;;5006097;28;20415;-86
2023/04/10 00:30:54;;;;;;;26.50;24.00;;;;;;;;;;5005173;28;20454;-86
2023/04/10 00:33:20;;;;;;;25.55;23.02;;;;;;;;;;5013429;28;20398;-86
2023/04/10 00:35:46;;;;;;;25.60;23.10;;;;;;;;;;5013913;28;20441;-86
2023/04/10 00:38:12;;;;;;;25.33;22.83;;;;;;;;;;5015161;28;20425;-86
2023/04/10 00:40:38;;;;;;;25.27;22.88;;;;;;;;;;4999492;28;20428;-85
2023/04/10 00:43:04;;;;;;;25.85;23.35;;;;;;;;;;5015249;28;20402;-86
2023/04/10 00:45:30;;;;;;;25.88;23.33;;;;;;;;;;4987371;28;20434;-85
2023/04/10 00:47:57;;;;;;;25.80;23.30;;;;;;;;;;5009476;28;20438;-86
2023/04/10 00:50:23;;;;;;;26.00;23.50;;;;;;;;;;5002479;28;20423;-86
2023/04/10 00:52:50;;;;;;;26.02;23.42;;;;;;;;;;5007578;28;20490;-86
2023/04/10 00:55:16;;;;;;;25.10;22.60;;;;;;;;;;5014125;28;20437;-86
2023/04/10 00:57:46;;;;;;;24.52;22.13;;;;;;;;;;5014589;28;20430;-86
2023/04/10 01:00:15;;;;;;;23.05;20.75;;;;;;;;;;4999624;28;20453;-86
2023/04/10 01:02:41;;;;;;;22.75;20.55;;;;;;;;;;5014235;28;20417;-86
2023/04/10 01:05:11;;;;;;;23.40;21.17;;;;;;;;;;4999250;28;20462;-86
2023/04/10 01:07:37;;;;;;;23.02;20.83;;;;;;;;;;5018336;28;20428;-85
2023/04/10 01:10:33;;;;;;;22.83;20.67;;;;;;;;;;5005465;28;20426;-86
2023/04/10 01:13:16;;;;;;;22.35;20.25;;;;;;;;;;5007877;28;20504;-87
2023/04/10 01:15:45;;;;;;;22.92;20.70;;;;;;;;;;5003821;28;20442;-86
2023/04/10 01:18:19;;;;;;;22.85;20.60;;;;;;;;;;5010534;28;20447;-85
2023/04/10 01:20:45;;;;;;;22.63;20.42;;;;;;;;;;5018700;28;20435;-86
2023/04/10 01:23:35;;;;;;;22.93;20.70;;;;;;;;;;5010370;28;20417;-86
2023/04/10 01:26:02;;;;;;;22.90;20.70;;;;;;;;;;5015837;28;20482;-86
2023/04/10 01:28:28;;;;;;;23.67;21.40;;;;;;;;;;5000965;28;20418;-85
2023/04/10 01:30:57;;;;;;;23.63;21.33;;;;;;;;;;5013961;28;20428;-86
2023/04/10 01:33:26;;;;;;;23.30;21.00;;;;;;;;;;5011364;28;20458;-86
2023/04/10 01:35:55;;;;;;;23.45;21.20;;;;;;;;;;5003640;28;20431;-86
2023/04/10 01:38:23;;;;;;;23.50;21.30;;;;;;;;;;5001441;28;20410;-86
2023/04/10 01:40:52;;;;;;;22.38;20.27;;;;;;;;;;5017077;28;20418;-86
2023/04/10 01:43:20;;;;;;;22.75;20.52;;;;;;;;;;5017707;28;20496;-86
2023/04/10 01:45:47;;;;;;;22.67;20.48;;;;;;;;;;5014529;28;20433;-86
2023/04/10 01:48:16;;;;;;;23.05;20.85;;;;;;;;;;5008284;28;20483;-86
2023/04/10 01:50:43;;;;;;;22.88;20.58;;;;;;;;;;5016318;28;20457;-86
2023/04/10 01:53:09;;;;;;;24.05;21.65;;;;;;;;;;5004069;28;20451;-85
2023/04/10 01:55:36;;;;;;;23.17;20.90;;;;;;;;;;5004439;28;20441;-86
2023/04/10 01:58:06;;;;;;;22.95;20.75;;;;;;;;;;5012508;28;20432;-86
2023/04/10 02:00:40;;;;;;;21.98;19.88;;;;;;;;;;5016867;28;20422;-86
2023/04/10 02:03:07;;;;;;;21.80;19.70;;;;;;;;;;5012781;28;20505;-86
2023/04/10 02:05:39;;;;;;;21.70;19.60;;;;;;;;;;5010008;28;20490;-86
2023/04/10 02:08:11;;;;;;;22.25;20.02;;;;;;;;;;5003826;28;20429;-85
2023/04/10 02:10:44;;;;;;;22.15;19.92;;;;;;;;;;5010733;28;20437;-85
2023/04/10 02:13:11;;;;;;;21.63;19.53;;;;;;;;;;5011474;28;20426;-85
2023/04/10 02:15:39;;;;;;;22.05;19.85;;;;;;;;;;5012016;28;20441;-86
2023/04/10 02:18:05;;;;;;;22.80;20.67;;;;;;;;;;5002420;28;20413;-85
2023/04/10 02:20:32;;;;;;;22.10;20.00;;;;;;;;;;5010221;28;20423;-86
2023/04/10 02:23:02;;;;;;;21.85;19.75;;;;;;;;;;5028806;28;20457;-85
2023/04/10 02:25:31;;;;;;;21.27;19.27;;;;;;;;;;4998548;28;20426;-85
2023/04/10 02:27:57;;;;;;;22.17;20.08;;;;;;;;;;5009695;28;20407;-86
2023/04/10 02:30:23;;;;;;;22.40;20.20;;;;;;;;;;5016096;28;20447;-86
2023/04/10 02:32:50;;;;;;;22.38;20.17;;;;;;;;;;5003638;28;20478;-86
2023/04/10 02:35:16;;;;;;;22.40;20.20;;;;;;;;;;5015376;28;20425;-85
2023/04/10 02:37:42;;;;;;;22.20;20.10;;;;;;;;;;5015194;28;20429;-85
2023/04/10 02:40:08;;;;;;;21.70;19.60;;;;;;;;;;5014344;28;20422;-86
2023/04/10 02:42:34;;;;;;;22.92;20.77;;;;;;;;;;4992909;28;20413;-85
2023/04/10 02:45:00;;;;;;;22.60;20.48;;;;;;;;;;4995023;28;20431;-85
2023/04/10 02:47:26;;;;;;;22.33;20.13;;;;;;;;;;4999981;28;20426;-85
2023/04/10 02:49:52;;;;;;;22.80;20.67;;;;;;;;;;5007557;28;20498;-85
2023/04/10 02:52:18;;;;;;;23.05;20.85;;;;;;;;;;4997649;28;20426;-85
2023/04/10 02:54:45;;;;;;;22.23;20.05;;;;;;;;;;5006490;28;20431;-86
2023/04/10 02:57:11;;;;;;;22.20;20.00;;;;;;;;;;4981879;28;20492;-85
2023/04/10 02:59:37;;;;;;;22.90;20.70;;;;;;;;;;5000613;28;20435;-85
2023/04/10 03:02:03;;;;;;;22.27;19.95;;;;;;;;;;4995554;28;20470;-85
2023/04/10 03:04:31;;;;;;;22.92;20.73;;;;;;;;;;4992606;28;20556;-85
2023/04/10 03:06:58;;;;;;;22.60;20.50;;;;;;;;;;5012696;28;20419;-85
2023/04/10 03:09:24;;;;;;;23.13;20.73;;;;;;;;;;5014357;28;20512;-86
2023/04/10 03:11:50;;;;;;;22.77;20.48;;;;;;;;;;5003845;28;20422;-85
2023/04/10 03:14:16;;;;;;;23.40;21.08;;;;;;;;;;4999232;28;20461;-85
2023/04/10 03:16:43;;;;;;;22.92;20.77;;;;;;;;;;4995318;28;20418;-86
2023/04/10 03:19:09;;;;;;;22.63;20.33;;;;;;;;;;5016828;28;20502;-85
2023/04/10 03:21:35;;;;;;;22.80;20.50;;;;;;;;;;5013678;28;20432;-85
2023/04/10 03:24:01;;;;;;;23.20;21.00;;;;;;;;;;4997870;28;20526;-85
2023/04/10 03:26:27;;;;;;;23.23;20.93;;;;;;;;;;4989263;28;20422;-85
2023/04/10 03:28:53;;;;;;;23.38;21.08;;;;;;;;;;5007696;28;20486;-85
2023/04/10 03:31:20;;;;;;;22.65;20.45;;;;;;;;;;4998029;28;20410;-85
2023/04/10 03:33:46;;;;;;;23.33;21.13;;;;;;;;;;5007506;28;20538;-85
2023/04/10 03:36:12;;;;;;;22.90;20.60;;;;;;;;;;5011328;28;20417;-85
2023/04/10 03:38:38;;;;;;;23.40;21.08;;;;;;;;;;4982949;28;20528;-85
2023/04/10 03:41:04;;;;;;;22.80;20.60;;;;;;;;;;5004916;28;20412;-85
2023/04/10 03:43:32;;;;;;;22.38;20.23;;;;;;;;;;4995984;28;20423;-85
2023/04/10 03:45:59;;;;;;;23.30;21.00;;;;;;;;;;5012475;28;20427;-85
2023/04/10 03:48:27;;;;;;;22.67;20.48;;;;;;;;;;5019997;28;20509;-85
2023/04/10 03:50:53;;;;;;;22.67;20.58;;;;;;;;;;5015347;28;20485;-85
2023/04/10 03:53:19;;;;;;;23.17;20.98;;;;;;;;;;4999477;28;20453;-85
2023/04/10 03:55:45;;;;;;;22.80;20.55;;;;;;;;;;5014534;28;20448;-85
2023/04/10 03:58:12;;;;;;;22.90;20.70;;;;;;;;;;4998592;28;20416;-86
2023/04/10 04:00:38;;;;;;;22.60;20.35;;;;;;;;;;5005634;28;20458;-86
2023/04/10 04:03:04;;;;;;;23.10;20.80;;;;;;;;;;4998996;28;20432;-86
2023/04/10 04:05:31;;;;;;;22.95;20.65;;;;;;;;;;5006577;28;20432;-86
2023/04/10 04:07:57;;;;;;;22.50;20.30;;;;;;;;;;5010556;28;20504;-86
2023/04/10 04:10:25;;;;;;;22.50;20.30;;;;;;;;;;5015068;28;20483;-85
2023/04/10 04:12:51;;;;;;;22.48;20.27;;;;;;;;;;5012195;28;20433;-85
2023/04/10 04:15:17;;;;;;;23.27;20.92;;;;;;;;;;5006742;28;20440;-85
2023/04/10 04:17:45;;;;;;;22.70;20.60;;;;;;;;;;5015206;28;20479;-86
2023/04/10 04:20:11;;;;;;;24.20;21.80;;;;;;;;;;4995303;28;20415;-85
2023/04/10 04:22:37;;;;;;;24.52;22.10;;;;;;;;;;4998651;28;20457;-86
2023/04/10 04:25:07;;;;;;;23.20;20.90;;;;;;;;;;5006065;28;20431;-85
2023/04/10 04:27:33;;;;;;;23.70;21.30;;;;;;;;;;5011120;28;20426;-85
2023/04/10 04:29:59;;;;;;;23.55;21.15;;;;;;;;;;5008573;28;20432;-85
2023/04/10 04:32:25;;;;;;;22.90;20.70;;;;;;;;;;4984285;28;20433;-85
2023/04/10 04:34:51;;;;;;;22.45;20.35;;;;;;;;;;4998835;28;20434;-85
2023/04/10 04:37:20;;;;;;;22.23;20.05;;;;;;;;;;5009789;28;20421;-85
2023/04/10 04:39:46;;;;;;;22.00;19.90;;;;;;;;;;5014031;28;20456;-86
2023/04/10 04:42:12;;;;;;;22.98;20.77;;;;;;;;;;5014362;28;20537;-84
2023/04/10 04:44:38;;;;;;;22.47;20.13;;;;;;;;;;5015511;28;20496;-85
2023/04/10 04:47:04;;;;;;;22.45;20.15;;;;;;;;;;4998101;28;20447;-85
2023/04/10 04:49:30;;;;;;;22.65;20.45;;;;;;;;;;5018912;28;20493;-85
2023/04/10 04:51:56;;;;;;;22.55;20.35;;;;;;;;;;4999210;28;20431;-86
2023/04/10 04:54:22;;;;;;;21.98;19.88;;;;;;;;;;5013930;28;20499;-86
2023/04/10 04:56:48;;;;;;;23.08;20.67;;;;;;;;;;5001838;28;20512;-86
2023/04/10 04:59:14;;;;;;;22.57;20.47;;;;;;;;;;5003952;28;20429;-86
2023/04/10 05:01:40;;;;;;;24.13;21.25;;;;;;;;;;4991709;28;20433;-86
2023/04/10 05:04:07;;;;;;;23.10;20.80;;;;;;;;;;4984567;28;20462;-85
2023/04/10 05:06:33;;;;;;;23.37;21.07;;;;;;;;;;4993333;28;20462;-85
2023/04/10 05:08:59;;;;;;;21.77;19.73;;;;;;;;;;4998272;28;20551;-86
2023/04/10 05:11:25;;;;;;;21.93;19.63;;;;;;;;;;5004431;28;20407;-86
2023/04/10 05:13:51;;;;;;;21.13;19.05;;;;;;;;;;5008047;28;20411;-85
2023/04/10 05:16:17;;;;;;;21.33;19.17;;;;;;;;;;4995355;28;20425;-86
2023/04/10 05:18:43;;;;;;;21.70;19.55;;;;;;;;;;5015480;28;20512;-85
2023/04/10 05:21:12;;;;;;;21.33;19.23;;;;;;;;;;5009789;28;20425;-85
2023/04/10 05:23:38;;;;;;;21.20;19.10;;;;;;;;;;4994958;28;20419;-85
2023/04/10 05:26:04;;;;;;;21.48;19.38;;;;;;;;;;5000487;28;20429;-86
2023/04/10 05:28:33;;;;;;;21.20;19.10;;;;;;;;;;5007687;28;20408;-87
2023/04/10 05:30:59;;;;;;;20.90;18.80;;;;;;;;;;5006984;28;20436;-86
2023/04/10 05:33:25;;;;;;;21.33;19.25;;;;;;;;;;5007416;28;20435;-85
2023/04/10 05:35:52;;;;;;;20.67;18.63;;;;;;;;;;5009375;28;20425;-86
2023/04/10 05:38:18;;;;;;;21.00;18.92;;;;;;;;;;5011273;28;20428;-86
2023/04/10 05:40:45;;;;;;;21.02;18.92;;;;;;;;;;5012735;28;20426;-87
2023/04/10 05:43:11;;;;;;;20.52;18.42;;;;;;;;;;5004031;28;20456;-86
2023/04/10 05:45:39;;;;;;;20.73;18.67;;;;;;;;;;5010557;28;20432;-85
2023/04/10 05:48:05;;;;;;;20.63;18.73;;;;;;;;;;5007054;28;20431;-88
2023/04/10 05:50:31;;;;;;;20.87;18.93;;;;;;;;;;5006747;28;20508;-88
2023/04/10 05:52:57;;;;;;;20.08;18.27;;;;;;;;;;5007829;28;20429;-88
2023/04/10 05:55:24;;;;;;;20.83;18.83;;;;;;;;;;5010736;28;20443;-87
2023/04/10 05:57:50;;;;;;;19.98;18.15;;;;;;;;;;4990194;28;20506;-87
2023/04/10 06:00:17;;;;;;;20.30;18.30;;;;;;;;;;5001489;28;20399;-87
2023/04/10 06:02:43;;;;;;;20.80;18.80;;;;;;;;;;5011640;28;20512;-89
2023/04/10 06:05:11;;;;;;;20.02;18.02;;;;;;;;;;5008536;28;20429;-88
2023/04/10 06:07:37;;;;;;;20.50;18.50;;;;;;;;;;5007295;28;20425;-85
2023/04/10 06:10:23;;;;;;;;;;;;;;;;;;;;;
2023/04/10 06:12:49;;;;;;;20.75;18.67;;;;;;;;;;5023892;28;20414;-86
2023/04/10 06:15:15;;;;;;;19.97;18.07;;;;;;;;;;5007816;28;20499;-86
2023/04/10 06:17:42;;;;;;;20.63;18.52;;;;;;;;;;5006008;28;20409;-86
2023/04/10 06:20:09;;;;;;;18.20;16.23;;;;;;;;;;5007532;28;20176;-87
2023/04/10 06:22:40;;;;;;;19.63;17.73;;;;;;;;;;5006251;28;20539;-87
2023/04/10 06:25:07;;;;;;;19.45;17.55;;;;;;;;;;5006979;28;20405;-87
2023/04/10 06:27:36;;;;;;;19.05;17.15;;;;;;;;;;5008424;28;20429;-85
2023/04/10 06:30:02;;;;;;;18.95;17.15;;;;;;;;;;5006961;28;20414;-86
2023/04/10 06:32:28;;;;;;;18.17;16.48;;;;;;;;;;5007410;28;20431;-86
2023/04/10 06:34:54;;;;;;;18.75;16.95;;;;;;;;;;5007572;28;20462;-86
2023/04/10 06:37:26;;;;;;;18.50;16.70;;;;;;;;;;5013242;28;20421;-86
2023/04/10 06:39:59;;;;;;;18.13;16.42;;;;;;;;;;5015456;28;20504;-85
2023/04/10 06:42:25;;;;;;;17.85;16.25;;;;;;;;;;5010980;28;20546;-85
2023/04/10 06:44:51;;;;;;;18.67;16.80;;;;;;;;;;5012472;28;20430;-85
2023/04/10 06:47:17;;;;;;;17.47;15.77;;;;;;;;;;5015905;28;20455;-86
2023/04/10 06:49:44;;;;;;;17.00;15.30;;;;;;;;;;5012769;28;20426;-86
2023/04/10 06:52:10;;;;;;;17.65;15.82;;;;;;;;;;5007058;28;20454;-86
2023/04/10 06:54:36;;;;;;;17.52;15.90;;;;;;;;;;5007972;28;20437;-90
2023/04/10 06:57:05;;;;;;;17.25;15.65;;;;;;;;;;5010517;28;20421;-88
2023/04/10 06:59:33;;;;;;;17.02;15.50;;;;;;;;;;5009601;28;20401;-88
2023/04/10 07:01:59;;;;;;;17.15;15.52;;;;;;;;;;5004681;28;20506;-87
2023/04/10 07:04:26;;;;;;;15.87;14.27;;;;;;;;;;5016879;28;20177;-87
2023/04/10 07:06:52;;;;;;;16.88;15.27;;;;;;;;;;5006228;28;20423;-87
2023/04/10 07:09:20;;;;;;;15.17;13.57;;;;;;;;;;5004730;28;20189;-88
2023/04/10 07:11:46;;;;;;;16.15;14.65;;;;;;;;;;5000419;28;20421;-89
2023/04/10 07:14:15;;;;;;;15.80;14.37;;;;;;;;;;4984466;28;20435;-88
2023/04/10 07:16:44;;;;;;;14.50;13.00;;;;;;;;;;4995616;28;20440;-90
2023/04/10 07:19:12;;;;;;;14.77;13.40;;;;;;;;;;4996104;28;20411;-91
2023/04/10 07:21:38;;;;;;;14.13;12.73;;;;;;;;;;5028353;28;20181;-89
2023/04/10 07:24:07;;;;;;;14.95;13.52;;;;;;;;;;5004185;28;20421;-88
2023/04/10 07:26:33;;;;;;;14.60;13.20;;;;;;;;;;5015357;28;20417;-89
2023/04/10 07:28:59;;;;;;;15.10;13.68;;;;;;;;;;5012268;28;20425;-86
2023/04/10 07:31:27;;;;;;;14.95;13.48;;;;;;;;;;5014582;28;20425;-85
2023/04/10 07:33:54;;;;;;;15.00;13.60;;;;;;;;;;4998744;28;20433;-85
2023/04/10 07:36:20;;;;;;;14.95;13.48;;;;;;;;;;4998471;28;20431;-85
2023/04/10 07:38:46;;;;;;;14.65;13.25;;;;;;;;;;5015403;28;20493;-85
2023/04/10 07:41:12;;;;;;;13.65;12.35;;;;;;;;;;5011935;28;20422;-85
2023/04/10 07:43:38;;;;;;;13.20;11.80;;;;;;;;;;5000896;28;20204;-85
2023/04/10 07:46:05;;;;;;;13.33;12.03;;;;;;;;;;5009811;28;20193;-84
2023/04/10 07:48:31;;;;;;;14.43;13.03;;;;;;;;;;5011063;28;20419;-85
2023/04/10 07:50:57;;;;;;;12.83;11.63;;;;;;;;;;4997824;28;20435;-84
2023/04/10 07:53:23;;;;;;;13.00;11.30;;;;;;;;;;5009589;28;20176;-85
2023/04/10 07:55:50;;;;;;;12.47;11.20;;;;;;;;;;4981377;28;20237;-85
2023/04/10 07:58:16;;;;;;;12.47;11.17;;;;;;;;;;4989885;28;20193;-84
2023/04/10 08:00:42;;;;;;;11.77;10.57;;;;;;;;;;5005049;28;20191;-84
2023/04/10 08:03:08;;;;;;;12.53;11.33;;;;;;;;;;5013804;28;20191;-84
2023/04/10 08:05:34;;;;;;;12.00;10.50;;;;;;;;;;5015020;28;20214;-84
2023/04/10 08:08:00;;;;;;;12.80;11.23;;;;;;;;;;4992968;28;20204;-85
2023/04/10 08:10:26;;;;;;;12.10;10.60;;;;;;;;;;4996822;28;20180;-84
2023/04/10 08:12:54;;;;;;;12.20;11.00;;;;;;;;;;4990040;28;20188;-84
2023/04/10 08:15:20;;;;;;;11.93;10.73;;;;;;;;;;5014242;28;20208;-84
2023/04/10 08:17:46;;;;;;;11.43;10.20;;;;;;;;;;5032434;28;20185;-85
2023/04/10 08:20:12;;;;;;;13.07;11.77;;;;;;;;;;5009459;28;20430;-84
2023/04/10 08:22:39;;;;;;;11.53;10.33;;;;;;;;;;5008154;28;20188;-84
2023/04/10 08:25:05;;;;;;;10.53;9.53;;;;;;;;;;5012681;28;20192;-85
2023/04/10 08:27:31;;;;;;;11.83;10.20;;;;;;;;;;5004226;28;20173;-85
2023/04/10 08:29:57;;;;;;;11.77;10.57;;;;;;;;;;5014405;28;20433;-84
2023/04/10 08:32:25;;;;;;;10.67;9.67;;;;;;;;;;4994543;28;20196;-84
2023/04/10 08:34:51;;;;;;;11.75;10.07;;;;;;;;;;5008974;28;20522;-84
2023/04/10 08:37:18;;;;;;;10.43;9.43;;;;;;;;;;5030936;28;20418;-85
2023/04/10 08:39:44;;;;;;;11.40;10.30;;;;;;;;;;5015672;28;20446;-84
2023/04/10 08:42:10;;;;;;;10.75;9.77;;;;;;;;;;5012072;28;20425;-85
2023/04/10 08:44:37;;;;;;;10.00;9.07;;;;;;;;;;4996874;28;20189;-85
2023/04/10 08:47:05;;;;;;;11.02;10.02;;;;;;;;;;5028103;28;20426;-84
2023/04/10 08:49:34;;;;;;;9.90;8.90;;;;;;;;;;5013299;28;20188;-85
2023/04/10 08:52:01;;;;;;;11.38;10.27;;;;;;;;;;5006613;28;20491;-84
2023/04/10 08:54:28;;;;;;;10.52;9.52;;;;;;;;;;4995955;28;20510;-85
2023/04/10 08:56:59;;;;;;;10.30;9.30;;;;;;;;;;5014320;28;20228;-84
2023/04/10 08:59:27;;;;;;;10.20;9.30;;;;;;;;;;5011728;28;20411;-85
2023/04/10 09:01:53;;;;;;;10.20;9.10;;;;;;;;;;5008972;28;20448;-85
2023/04/10 09:04:19;;;;;;;9.70;8.48;;;;;;;;;;5012617;28;20411;-85
2023/04/10 09:06:45;;;;;;;10.00;9.10;;;;;;;;;;5007872;28;20457;-85
2023/04/10 09:09:11;;;;;;;9.63;8.63;;;;;;;;;;5003334;28;20688;-85
2023/04/10 09:11:55;;;;;;;9.52;8.63;;;;;;;;;;4998761;28;20429;-84
2023/04/10 09:14:21;;;;;;;9.63;8.73;;;;;;;;;;4998531;28;20503;-85
2023/04/10 09:16:48;;;;;;;8.83;8.03;;;;;;;;;;4999053;28;20183;-85
2023/04/10 09:19:28;;;;;;;10.03;8.13;;;;;;;;;;5016323;28;20172;-85
2023/04/10 09:21:55;;;;;;;10.00;9.00;;;;;;;;;;5012225;28;20407;-84
2023/04/10 09:24:24;;;;;;;9.73;8.80;;;;;;;;;;4998001;28;20181;-84
2023/04/10 09:26:50;;;;;;;9.90;8.63;;;;;;;;;;5005583;28;20193;-85
2023/04/10 09:29:16;;;;;;;9.27;8.47;;;;;;;;;;4999613;28;20177;-85
2023/04/10 09:31:43;;;;;;;10.67;9.60;;;;;;;;;;5001353;28;20528;-84
2023/04/10 09:34:23;;;;;;;10.05;9.05;;;;;;;;;;5018041;28;20432;-85
2023/04/10 09:37:00;;;;;;;10.07;8.70;;;;;;;;;;5009576;28;20223;-88
2023/04/10 09:39:34;;;;;;;9.20;8.20;;;;;;;;;;5004841;28;20189;-88
2023/04/10 09:42:01;;;;;;;9.73;8.40;;;;;;;;;;4999743;28;20222;-87
2023/04/10 09:44:34;;;;;;;9.07;8.27;;;;;;;;;;5012223;28;20188;-86
2023/04/10 09:47:12;;;;;;;9.10;8.03;;;;;;;;;;5013557;28;20184;-87
2023/04/10 09:49:48;;;;;;;9.40;8.37;;;;;;;;;;5012023;28;20184;-84
2023/04/10 09:52:18;;;;;;;9.77;8.73;;;;;;;;;;5017913;28;20216;-85
2023/04/10 09:54:45;;;;;;;9.60;8.70;;;;;;;;;;5019046;28;20207;-86
2023/04/10 09:57:12;;;;;;;9.47;8.47;;;;;;;;;;5012891;28;20223;-90
2023/04/10 09:59:39;;;;;;;9.37;8.20;;;;;;;;;;5019420;28;20230;-88
2023/04/10 10:02:06;;;;;;;9.07;8.20;;;;;;;;;;5003864;28;20185;-91
2023/04/10 10:04:33;;;;;;;10.13;9.20;;;;;;;;;;5013491;28;20425;-91
2023/04/10 10:07:00;;;;;;;9.67;8.77;;;;;;;;;;5009470;28;20189;-91
2023/04/10 10:09:29;;;;;;;9.67;8.77;;;;;;;;;;5015466;28;20180;-90
2023/04/10 10:11:58;;;;;;;9.33;8.33;;;;;;;;;;5013599;28;20215;-93
2023/04/10 10:14:28;;;;;;;9.87;8.93;;;;;;;;;;5025583;28;20204;-90
2023/04/10 10:16:56;;;;;;;10.10;8.70;;;;;;;;;;5014032;28;20212;-91
2023/04/10 10:19:35;;;;;;;9.30;8.40;;;;;;;;;;5015067;28;20193;-91
2023/04/10 10:22:17;;;;;;;8.80;7.73;;;;;;;;;;5019505;28;20173;-93
2023/04/10 10:24:47;;;;;;;17.47;7.83;;;;;;;;;;5018646;28;20177;-92
2023/04/10 10:27:14;;;;;;;8.37;7.60;;;;;;;;;;5005492;28;20181;-92
2023/04/10 10:29:41;;;;;;;11.15;8.55;;;;;;;;;;5006438;28;20417;-93
2023/04/10 10:32:07;;;;;;;9.30;8.40;;;;;;;;;;5018894;28;20326;-91
2023/04/10 10:34:35;;;;;;;9.10;8.30;;;;;;;;;;5018752;28;20531;-90
2023/04/10 10:37:02;;;;;;;8.40;7.47;;;;;;;;;;5018450;28;20200;-92
2023/04/10 10:39:50;;;;;;;8.30;7.50;;;;;;;;;;5018517;28;20169;-91
2023/04/10 10:42:23;;;;;;;7.77;6.93;;;;;;;;;;5019432;28;20182;-91
2023/04/10 10:45:21;;;;;;;7.70;6.93;;;;;;;;;;5018496;28;20185;-91
2023/04/10 10:47:53;;;;;;;7.77;6.90;;;;;;;;;;5018487;28;20184;-91
2023/04/10 10:50:20;;;;;;;7.17;6.47;;;;;;;;;;5018937;28;20181;-92
2023/04/10 10:52:52;;;;;;;9.97;6.50;;;;;;;;;;5018614;28;20173;-91
2023/04/10 10:55:24;;;;;;;6.67;5.97;;;;;;;;;;5017378;28;20211;-93
2023/04/10 10:57:54;;;;;;;6.97;6.27;;;;;;;;;;5017625;28;20201;-91
2023/04/10 11:00:20;;;;;;;6.97;6.23;;;;;;;;;;5018234;28;20177;-92
2023/04/10 11:03:05;;;;;;;7.13;6.43;;;;;;;;;;5016666;28;20184;-90
2023/04/10 11:05:58;;;;;;;6.93;6.27;;;;;;;;;;5007171;28;20238;-90
2023/04/10 11:08:38;;;;;;;7.83;5.93;;;;;;;;;;5009510;28;20192;-87
2023/04/10 11:11:06;;;;;;;8.60;5.50;;;;;;;;;;5007400;28;20187;-90
2023/04/10 11:13:42;;;;;;;6.30;5.70;;;;;;;;;;5011757;28;20177;-91
2023/04/10 11:16:11;;;;;;;6.47;5.87;;;;;;;;;;5004866;28;20223;-90
2023/04/10 11:18:46;;;;;;;7.63;6.07;;;;;;;;;;5009569;28;20203;-88
2023/04/10 11:21:21;;;;;;;6.40;5.80;;;;;;;;;;5005736;28;20183;-92
2023/04/10 11:23:53;;;;;;;6.70;6.10;;;;;;;;;;5004399;28;20198;-89
2023/04/10 11:26:45;;;;;;;6.40;5.67;;;;;;;;;;5011077;28;20201;-89
2023/04/10 11:29:20;;;;;;;6.87;5.73;;;;;;;;;;5007555;28;20240;-89
2023/04/10 11:34:44;;;;;;;8.37;6.20;;;;;;;;;;5003331;28;20207;-91
2023/04/10 11:37:21;;;;;;;7.50;6.00;;;;;;;;;;4991647;28;20185;-90
2023/04/10 11:40:23;;;;;;;6.73;5.83;;;;;;;;;;5004495;28;20203;-90
2023/04/10 11:42:49;;;;;;;7.10;5.77;;;;;;;;;;5022594;28;20207;-90
2023/04/10 11:45:22;;;;;;;6.77;5.60;;;;;;;;;;5007662;28;20216;-90
2023/04/10 11:47:52;;;;;;;6.33;5.80;;;;;;;;;;5000731;28;20189;-91
2023/04/10 11:50:19;;;;;;;6.33;5.83;;;;;;;;;;5000789;28;20211;-92
2023/04/10 11:52:46;;;;;;;6.50;5.87;;;;;;;;;;5005944;28;20185;-90
2023/04/10 11:55:12;;;;;;;6.43;5.60;;;;;;;;;;5004494;28;20270;-91
2023/04/10 11:57:38;;;;;;;5.70;5.13;;;;;;;;;;5011909;28;20361;-90
2023/04/10 12:00:05;;;;;;;5.70;5.20;;;;;;;;;;5005673;28;20177;-90
2023/04/10 12:02:34;;;;;;;5.60;5.10;;;;;;;;;;4990796;28;20189;-90
2023/04/10 12:05:23;;;;;;;6.60;5.60;;;;;;;;;;5010950;28;20252;-91
2023/04/10 12:07:51;;;;;;;7.20;5.80;;;;;;;;;;5003932;28;20327;-90
2023/04/10 12:10:17;;;;;;;6.37;5.03;;;;;;;;;;5005317;28;20184;-90
2023/04/10 12:12:51;;;;;;;6.67;5.07;;;;;;;;;;5009668;28;20203;-91
2023/04/10 12:15:27;;;;;;;6.00;5.50;;;;;;;;;;4998788;28;20441;-91
2023/04/10 12:17:54;;;;;;;5.13;4.73;;;;;;;;;;5005394;28;20263;-91
2023/04/10 12:20:22;;;;;;;5.57;5.13;;;;;;;;;;5004397;28;20287;-91
2023/04/10 12:22:48;;;;;;;5.87;5.27;;;;;;;;;;5003031;28;20601;-88
2023/04/10 12:25:17;;;;;;;5.93;4.93;;;;;;;;;;5005307;28;20185;-90
2023/04/10 12:27:48;;;;;;;5.77;5.27;;;;;;;;;;5003850;28;20193;-90
2023/04/10 12:30:17;;;;;;;6.07;5.17;;;;;;;;;;5005534;28;20189;-90
2023/04/10 12:32:50;;;;;;;5.83;4.60;;;;;;;;;;4998880;28;20185;-90
2023/04/10 12:35:16;;;;;;;4.30;3.90;;;;;;;;;;5014559;28;20240;-90
2023/04/10 12:37:53;;;;;;;4.47;4.07;;;;;;;;;;5005276;28;20199;-90
2023/04/10 12:40:20;;;;;;;6.23;3.93;;;;;;;;;;5016229;28;20230;-90
2023/04/10 12:42:56;;;;;;;5.00;3.80;;;;;;;;;;5011829;28;20187;-91
2023/04/10 12:45:51;;;;;;;4.00;3.70;;;;;;;;;;5003535;28;20188;-91
2023/04/10 12:48:27;;;;;;;3.67;3.37;;;;;;;;;;5003957;28;20196;-90
2023/04/10 12:50:53;;;;;;;5.30;3.60;;;;;;;;;;5003655;28;20192;-90
2023/04/10 12:53:19;;;;;;;5.43;3.97;;;;;;;;;;5016131;28;20185;-89
2023/04/10 12:56:05;;;;;;;10.20;4.27;;;;;;;;;;5012873;28;20225;-92
2023/04/10 12:58:36;;;;;;;3.83;3.53;;;;;;;;;;4997709;28;20284;-90
2023/04/10 13:01:03;;;;;;;7.13;3.53;;;;;;;;;;5004109;28;20185;-91
2023/04/10 13:03:36;;;;;;;4.40;4.00;;;;;;;;;;5006628;28;20432;-92
2023/04/10 13:06:07;;;;;;;5.00;4.10;;;;;;;;;;5006510;28;20454;-91
2023/04/10 13:08:34;;;;;;;5.03;3.73;;;;;;;;;;5007503;28;20180;-90
2023/04/10 13:11:06;;;;;;;4.90;3.95;;;;;;;;;;4996200;28;20423;-89
2023/04/10 13:13:32;;;;;;;4.80;3.83;;;;;;;;;;5009936;28;20417;-89
2023/04/10 13:16:00;;;;;;;4.28;3.90;;;;;;;;;;5008996;28;20433;-90
2023/04/10 13:18:29;;;;;;;4.50;4.10;;;;;;;;;;5001778;28;20411;-89
2023/04/10 13:20:55;;;;;;;4.55;4.10;;;;;;;;;;5015211;28;20421;-90
2023/04/10 13:23:21;;;;;;;6.70;3.87;;;;;;;;;;5019116;28;20672;-87
2023/04/10 13:25:47;;;;;;;5.20;3.83;;;;;;;;;;5016294;28;20193;-89
2023/04/10 13:28:17;;;;;;;4.63;4.00;;;;;;;;;;5004194;28;20481;-92
2023/04/10 13:30:52;;;;;;;4.70;4.20;;;;;;;;;;5008814;28;20189;-92
2023/04/10 13:33:19;;;;;;;6.07;4.30;;;;;;;;;;5003055;28;20429;-91
2023/04/10 13:35:47;;;;;;;4.83;3.90;;;;;;;;;;5016542;28;20247;-90
2023/04/10 13:38:15;;;;;;;4.83;4.33;;;;;;;;;;5000600;28;20174;-91
2023/04/10 13:40:41;;;;;;;4.87;4.43;;;;;;;;;;5001761;28;20235;-91
2023/04/10 13:43:10;;;;;;;4.50;4.10;;;;;;;;;;5031689;28;20172;-90
2023/04/10 13:45:36;;;;;;;5.60;4.17;;;;;;;;;;5018811;28;20235;-90
2023/04/10 13:48:02;;;;;;;4.40;4.07;;;;;;;;;;5010987;28;20188;-91
2023/04/10 13:50:28;;;;;;;7.40;4.47;;;;;;;;;;4999228;28;20260;-91
2023/04/10 13:52:54;;;;;;;4.30;3.90;;;;;;;;;;5004319;28;20178;-90
2023/04/10 13:55:20;;;;;;;6.20;4.40;;;;;;;;;;5014877;28;20212;-90
2023/04/10 13:57:46;;;;;;;6.63;4.20;;;;;;;;;;5014882;28;20212;-90
2023/04/10 14:00:13;;;;;;;4.78;4.35;;;;;;;;;;4999887;28;20434;-89
2023/04/10 14:02:39;;;;;;;5.93;4.30;;;;;;;;;;5016309;28;20249;-90
2023/04/10 14:05:05;;;;;;;4.80;4.30;;;;;;;;;;5012429;28;20423;-90
2023/04/10 14:07:32;;;;;;;5.20;4.20;;;;;;;;;;5002615;28;20235;-90
2023/04/10 14:09:58;;;;;;;6.03;4.20;;;;;;;;;;5005077;28;20206;-89
2023/04/10 14:12:24;;;;;;;4.87;4.37;;;;;;;;;;5019149;28;20181;-89
2023/04/10 14:14:50;;;;;;;4.87;4.10;;;;;;;;;;5002933;28;20212;-90
2023/04/10 14:17:16;;;;;;;4.60;4.20;;;;;;;;;;5012279;28;20192;-89
2023/04/10 14:19:45;;;;;;;4.27;3.87;;;;;;;;;;5013866;28;20191;-90
2023/04/10 14:22:11;;;;;;;5.80;3.70;;;;;;;;;;5005653;28;20185;-89
2023/04/10 14:24:37;;;;;;;4.43;4.03;;;;;;;;;;5010988;28;20192;-91
2023/04/10 14:27:03;;;;;;;4.70;4.30;;;;;;;;;;5012792;28;20276;-91
2023/04/10 14:29:29;;;;;;;5.40;4.60;;;;;;;;;;5009200;28;20200;-91
2023/04/10 14:31:57;;;;;;;5.80;4.97;;;;;;;;;;5005851;28;20211;-92
2023/04/10 14:34:23;;;;;;;5.00;4.50;;;;;;;;;;5008006;28;20240;-89
2023/04/10 14:36:54;;;;;;;4.40;4.00;;;;;;;;;;5011917;28;20347;-89
2023/04/10 14:39:20;;;;;;;6.33;4.03;;;;;;;;;;5005764;28;20165;-89